Hartness State (Springfield) Information

FAA: VSF - ICAO: KVSF

Hartness State (Springfield) (Airport) Location

State Vermont
County Windsor
City Springfield
Hartness State (Springfield) (Airport) is 3 miles northwest of Springfield, VT.
Latitude 43-20-37.4000N
Longitude 072-31-02.2000W
Elevation 577ft

Hartness State (Springfield) METARs

METAR KVSF 200254Z AUTO 00000KT 10SM OVC090 09/04 A2980 RMK AO2 SLP093 T00890044 58002
Altimeter 29.80"
Temperature 8.9°C (48.0°F)
Wind 0° at 0KT
Clouds overcast at 9,000ft
Visibility 10.0mi
Time observed: 2021-10-20T02:54:00Z

Hartness State (Springfield) (Airport) Details

Status Operational
Activation October 1937
Ownership Public
Usage Public
Chart NEW YORK
ATC on-site No
Beacon schedule sunset-sunrise
Beacon color clear green

Hartness State (Springfield) (Airport) Contacts

Owner STATE OF VERMONT; GUY ROUELLE
Owner address RUTLAND SVR AIRPORT, 1002 AIRPORT ROAD, NO CLARENDON, VT 05759-5001
Owner phone (802) 786-8881
Manager YON PERRAS
Manager address 652 EARL GREY RD, MORRISVILLE, VT 05661
Manager phone 510-393-5394

Hartness State (Springfield) Radio Frequencies

Hartness State (Springfield) (Airport) Radio Frequencies

UNICOM 122.8
Common traffic advisory frequency (CTAF) 122.8